createdAt,value
2023-03-16T00:00:56.952Z,7.38
2023-03-16T00:03:24.967Z,7.37
2023-03-16T00:05:54.330Z,7.38
2023-03-16T00:08:22.517Z,7.37
2023-03-16T00:10:54.353Z,7.37
2023-03-16T00:13:24.186Z,7.38
2023-03-16T00:15:53.910Z,7.38
2023-03-16T00:18:23.112Z,7.39
2023-03-16T00:20:55.684Z,7.41
2023-03-16T00:23:27.448Z,7.44
2023-03-16T00:26:00.138Z,7.45
2023-03-16T00:28:29.103Z,7.47
2023-03-16T00:30:59.236Z,7.50
2023-03-16T00:33:27.843Z,7.51
2023-03-16T00:36:02.357Z,7.53
2023-03-16T00:38:32.480Z,7.54
2023-03-16T00:41:04.039Z,7.55
2023-03-16T00:43:40.734Z,7.57
2023-03-16T00:46:11.691Z,7.58
2023-03-16T00:48:42.691Z,7.58
2023-03-16T00:51:13.110Z,7.58
2023-03-16T00:53:41.909Z,7.57
2023-03-16T00:56:11.134Z,7.58
2023-03-16T00:58:40.528Z,7.56
2023-03-16T01:01:27.700Z,7.55
2023-03-16T01:03:56.115Z,7.53
2023-03-16T01:06:24.191Z,7.53
2023-03-16T01:08:52.788Z,7.52
2023-03-16T01:11:22.187Z,7.51
2023-03-16T01:13:50.988Z,7.48
2023-03-16T01:16:19.219Z,7.46
2023-03-16T01:18:52.684Z,7.45
2023-03-16T01:21:21.810Z,7.43
2023-03-16T01:23:53.079Z,7.42
2023-03-16T01:26:23.241Z,7.43
2023-03-16T01:28:51.934Z,7.42
2023-03-16T01:31:19.964Z,7.40
2023-03-16T01:33:48.289Z,7.39
2023-03-16T01:36:21.594Z,7.41
2023-03-16T01:39:03.058Z,7.41
2023-03-16T01:41:37.188Z,7.41
2023-03-16T01:44:06.080Z,7.41
2023-03-16T01:46:34.573Z,7.40
2023-03-16T01:49:13.992Z,7.40
2023-03-16T01:51:51.801Z,7.38
2023-03-16T01:54:36.550Z,7.36
2023-03-16T01:57:13.110Z,7.36
2023-03-16T01:59:48.451Z,7.35
2023-03-16T02:02:19.304Z,7.33
2023-03-16T02:04:59.966Z,7.32
2023-03-16T02:07:32.044Z,7.29
2023-03-16T02:10:02.704Z,7.29
2023-03-16T02:12:31.080Z,7.27
2023-03-16T02:14:59.431Z,7.25
2023-03-16T02:17:28.640Z,7.23
2023-03-16T02:20:00.119Z,7.22
2023-03-16T02:22:28.269Z,7.20
2023-03-16T02:24:56.288Z,7.18
2023-03-16T02:27:31.272Z,7.16
2023-03-16T02:30:02.745Z,7.15
2023-03-16T02:32:35.426Z,7.13
2023-03-16T02:35:04.018Z,7.12
2023-03-16T02:37:34.749Z,7.11
2023-03-16T02:40:16.826Z,7.11
2023-03-16T02:42:45.515Z,7.10
2023-03-16T02:45:13.610Z,7.11
2023-03-16T02:47:42.811Z,7.11
2023-03-16T02:50:12.621Z,7.10
2023-03-16T02:52:41.200Z,7.09
2023-03-16T02:55:10.128Z,7.09
2023-03-16T02:57:38.285Z,7.08
2023-03-16T03:00:18.261Z,7.07
2023-03-16T03:02:48.590Z,7.06
2023-03-16T03:05:16.826Z,7.04
2023-03-16T03:07:45.523Z,7.03
2023-03-16T03:10:14.427Z,7.03
2023-03-16T03:12:42.707Z,7.00
2023-03-16T03:15:10.983Z,6.96
2023-03-16T03:18:01.431Z,6.89
2023-03-16T03:20:31.488Z,6.85
2023-03-16T03:22:59.671Z,6.81
2023-03-16T03:25:28.064Z,6.77
2023-03-16T03:27:56.518Z,6.73
2023-03-16T03:30:25.280Z,6.70
2023-03-16T03:32:53.665Z,6.67
2023-03-16T03:35:23.011Z,6.64
2023-03-16T03:37:51.099Z,6.61
2023-03-16T03:40:19.778Z,6.57
2023-03-16T03:42:51.545Z,6.54
2023-03-16T03:45:19.526Z,6.51
2023-03-16T03:47:47.704Z,6.47
2023-03-16T03:50:19.148Z,6.44
2023-03-16T03:52:56.950Z,6.41
2023-03-16T03:55:25.542Z,6.39
2023-03-16T03:57:54.094Z,6.36
2023-03-16T04:00:22.306Z,6.31
2023-03-16T04:02:51.666Z,6.28
2023-03-16T04:05:28.105Z,6.23
2023-03-16T04:07:57.796Z,6.20
2023-03-16T04:10:30.235Z,6.16
2023-03-16T04:12:59.910Z,6.14
2023-03-16T04:15:28.664Z,6.13
2023-03-16T04:18:06.158Z,6.12
2023-03-16T04:20:34.228Z,6.10
2023-03-16T04:23:02.724Z,6.06
2023-03-16T04:25:31.516Z,6.02
2023-03-16T04:28:00.109Z,5.98
2023-03-16T04:30:31.096Z,5.95
2023-03-16T04:33:08.320Z,5.93
2023-03-16T04:35:36.649Z,5.90
2023-03-16T04:38:04.998Z,5.87
2023-03-16T04:40:40.953Z,5.85
2023-03-16T04:43:14.153Z,5.84
2023-03-16T04:45:42.530Z,5.82
2023-03-16T04:48:10.712Z,5.81
2023-03-16T04:50:38.991Z,5.79
2023-03-16T04:53:07.052Z,5.77
2023-03-16T04:55:35.550Z,5.75
2023-03-16T04:58:03.656Z,5.73
2023-03-16T05:00:34.680Z,5.71
2023-03-16T05:03:29.762Z,5.70
2023-03-16T05:05:58.410Z,5.70
2023-03-16T05:08:27.354Z,5.69
2023-03-16T05:10:59.553Z,5.70
2023-03-16T05:13:29.947Z,5.70
2023-03-16T05:15:59.937Z,5.71
2023-03-16T05:18:33.692Z,5.72
2023-03-16T05:21:01.877Z,5.73
2023-03-16T05:23:37.820Z,5.74
2023-03-16T05:26:06.293Z,5.73
2023-03-16T05:28:34.883Z,5.73
2023-03-16T05:31:06.801Z,5.72
2023-03-16T05:33:45.055Z,5.72
2023-03-16T05:36:17.663Z,5.71
2023-03-16T05:38:47.756Z,5.69
2023-03-16T05:41:24.028Z,5.67
2023-03-16T05:43:59.980Z,5.64
2023-03-16T05:46:33.595Z,5.62
2023-03-16T05:49:02.997Z,5.59
2023-03-16T05:51:32.235Z,5.54
2023-03-16T05:54:01.495Z,5.48
2023-03-16T05:56:35.089Z,5.43
2023-03-16T05:59:03.497Z,5.38
2023-03-16T06:01:34.200Z,5.35
2023-03-16T06:04:03.495Z,5.31
2023-03-16T06:06:34.872Z,5.28
2023-03-16T06:09:09.494Z,5.26
2023-03-16T06:11:37.884Z,5.23
2023-03-16T06:14:06.069Z,5.20
2023-03-16T06:16:34.434Z,5.19
2023-03-16T06:19:02.720Z,5.19
2023-03-16T06:21:31.516Z,5.20
2023-03-16T06:24:04.923Z,5.21
2023-03-16T06:26:32.833Z,5.22
2023-03-16T06:29:01.169Z,5.22
2023-03-16T06:31:29.836Z,5.24
2023-03-16T06:33:57.832Z,5.25
2023-03-16T06:36:25.914Z,5.25
2023-03-16T06:38:55.635Z,5.24
2023-03-16T06:41:44.476Z,5.23
2023-03-16T06:44:14.291Z,5.23
2023-03-16T06:46:51.900Z,5.24
2023-03-16T06:49:20.162Z,5.26
2023-03-16T06:51:48.345Z,5.26
2023-03-16T06:54:16.622Z,5.27
2023-03-16T06:56:46.371Z,5.26
2023-03-16T06:59:14.456Z,5.24
2023-03-16T07:01:44.532Z,5.24
2023-03-16T07:04:12.913Z,5.25
2023-03-16T07:06:41.716Z,5.26
2023-03-16T07:09:09.923Z,5.27
2023-03-16T07:11:38.309Z,5.27
2023-03-16T07:14:07.272Z,5.30
2023-03-16T07:16:36.312Z,5.31
2023-03-16T07:19:05.636Z,5.33
2023-03-16T07:21:40.963Z,5.35
2023-03-16T07:24:13.123Z,5.36
2023-03-16T07:26:42.589Z,5.37
2023-03-16T07:29:12.508Z,5.38
2023-03-16T07:31:41.028Z,5.39
2023-03-16T07:34:15.528Z,5.40
2023-03-16T07:36:49.603Z,5.40
2023-03-16T07:39:17.896Z,5.38
2023-03-16T07:41:46.395Z,5.38
2023-03-16T07:44:20.513Z,5.37
2023-03-16T07:46:49.811Z,5.36
2023-03-16T07:49:18.147Z,5.35
2023-03-16T07:51:46.477Z,5.34
2023-03-16T07:54:15.166Z,5.33
2023-03-16T07:56:49.387Z,5.31
2023-03-16T07:59:31.480Z,5.30
2023-03-16T08:01:59.912Z,5.31
2023-03-16T08:04:27.837Z,5.32
2023-03-16T08:07:00.392Z,5.34
2023-03-16T08:09:36.075Z,5.37
2023-03-16T08:12:06.429Z,5.39
2023-03-16T08:14:36.922Z,5.39
2023-03-16T08:17:14.253Z,5.36
2023-03-16T08:19:43.321Z,5.34
2023-03-16T08:22:12.540Z,5.32
2023-03-16T08:24:43.466Z,5.32
2023-03-16T08:27:13.501Z,5.33
2023-03-16T08:29:43.805Z,5.33
2023-03-16T08:32:14.749Z,5.33
2023-03-16T08:34:46.108Z,5.33
2023-03-16T08:37:14.668Z,5.34
2023-03-16T08:39:43.993Z,5.35
2023-03-16T08:42:15.453Z,5.34
2023-03-16T08:44:51.207Z,5.34
2023-03-16T08:47:19.526Z,5.35
2023-03-16T08:49:47.970Z,5.35
2023-03-16T08:52:17.033Z,5.35
2023-03-16T08:54:59.836Z,5.35
2023-03-16T08:57:30.318Z,5.36
2023-03-16T08:59:58.489Z,5.37
2023-03-16T09:02:26.880Z,5.38
2023-03-16T09:04:56.457Z,5.39
2023-03-16T09:07:24.540Z,5.39
2023-03-16T09:09:53.043Z,5.40
2023-03-16T09:12:22.516Z,5.40
2023-03-16T09:14:50.529Z,5.39
2023-03-16T09:17:18.804Z,5.39
2023-03-16T09:19:51.946Z,5.40
2023-03-16T09:22:20.706Z,5.39
2023-03-16T09:24:49.779Z,5.38
2023-03-16T09:27:18.683Z,5.39
2023-03-16T09:29:46.873Z,5.39
2023-03-16T09:32:15.663Z,5.40
2023-03-16T09:34:44.910Z,5.37
2023-03-16T09:37:13.139Z,5.35
2023-03-16T09:39:41.236Z,5.30
2023-03-16T09:42:34.163Z,5.28
2023-03-16T09:45:09.283Z,5.26
2023-03-16T09:47:38.819Z,5.25
2023-03-16T09:50:10.029Z,5.25
2023-03-16T09:52:38.550Z,5.26
2023-03-16T09:55:06.930Z,5.27
2023-03-16T09:57:39.698Z,5.28
2023-03-16T10:00:14.025Z,5.29
2023-03-16T10:02:42.200Z,5.29
2023-03-16T10:05:12.034Z,5.29
2023-03-16T10:07:52.787Z,5.31
2023-03-16T10:10:41.253Z,5.34
2023-03-16T10:13:18.207Z,5.35
2023-03-16T10:15:47.094Z,5.38
2023-03-16T10:18:21.209Z,5.40
2023-03-16T10:20:51.100Z,5.43
2023-03-16T10:23:24.325Z,5.45
2023-03-16T10:25:53.521Z,5.45
2023-03-16T10:28:22.963Z,5.46
2023-03-16T10:30:52.632Z,5.45
2023-03-16T10:33:27.145Z,5.45
2023-03-16T10:35:58.239Z,5.46
2023-03-16T10:38:50.683Z,5.47
2023-03-16T10:41:19.349Z,5.47
2023-03-16T10:43:52.000Z,5.49
2023-03-16T10:46:20.319Z,5.50
2023-03-16T10:48:59.654Z,5.50
2023-03-16T10:51:30.042Z,5.52
2023-03-16T10:54:05.140Z,5.50
2023-03-16T10:56:35.547Z,5.49
2023-03-16T10:59:13.027Z,5.49
2023-03-16T11:01:44.315Z,5.48
2023-03-16T11:04:15.807Z,5.50
2023-03-16T11:06:48.301Z,5.50
2023-03-16T11:09:21.285Z,5.48
2023-03-16T11:11:49.958Z,5.47
2023-03-16T11:14:20.416Z,5.47
2023-03-16T11:17:09.456Z,5.46
2023-03-16T11:19:39.802Z,5.45
2023-03-16T11:22:12.796Z,5.45
2023-03-16T11:24:44.250Z,5.44
2023-03-16T11:27:33.291Z,5.43
2023-03-16T11:30:21.128Z,5.41
2023-03-16T11:32:51.396Z,5.39
2023-03-16T11:35:44.050Z,5.39
2023-03-16T11:38:20.452Z,5.38
2023-03-16T11:40:49.049Z,5.37
2023-03-16T11:43:17.138Z,5.38
2023-03-16T11:45:45.772Z,5.38
2023-03-16T11:48:28.418Z,5.39
2023-03-16T11:51:11.544Z,5.39
2023-03-16T11:53:48.696Z,5.41
2023-03-16T11:56:39.473Z,5.41
2023-03-16T11:59:13.314Z,5.43
2023-03-16T12:02:00.909Z,5.44
2023-03-16T12:04:41.692Z,5.45
2023-03-16T12:07:19.495Z,5.47
2023-03-16T12:09:51.763Z,5.48
2023-03-16T12:12:23.320Z,5.48
2023-03-16T12:15:02.433Z,5.48
2023-03-16T12:17:32.275Z,5.49
2023-03-16T12:20:15.535Z,5.48
2023-03-16T12:22:50.222Z,5.49
2023-03-16T12:25:22.183Z,5.48
2023-03-16T12:27:53.320Z,5.50
2023-03-16T12:30:36.337Z,5.52
2023-03-16T12:33:18.631Z,5.53
2023-03-16T12:35:49.605Z,5.56
2023-03-16T12:38:37.613Z,5.57
2023-03-16T12:41:09.667Z,5.59
2023-03-16T12:43:37.894Z,5.60
2023-03-16T12:46:14.309Z,5.60
2023-03-16T12:48:48.033Z,5.61
2023-03-16T12:51:15.945Z,5.60
2023-03-16T12:53:47.873Z,5.58
2023-03-16T12:56:32.680Z,5.58
2023-03-16T12:59:04.077Z,5.57
2023-03-16T13:01:41.592Z,5.57
2023-03-16T13:04:17.058Z,5.58
2023-03-16T13:06:47.781Z,5.59
2023-03-16T13:09:27.504Z,5.59
2023-03-16T13:11:56.399Z,5.61
2023-03-16T13:14:34.301Z,5.62
2023-03-16T13:17:11.836Z,5.63
2023-03-16T13:19:40.581Z,5.64
2023-03-16T13:22:28.058Z,5.65
2023-03-16T13:25:11.218Z,5.66
2023-03-16T13:27:41.040Z,5.67
2023-03-16T13:30:36.858Z,5.69
2023-03-16T13:33:12.491Z,5.71
2023-03-16T13:35:41.235Z,5.72
2023-03-16T13:38:19.164Z,5.74
2023-03-16T13:40:48.381Z,5.77
2023-03-16T13:43:17.804Z,5.78
2023-03-16T13:45:46.704Z,5.79
2023-03-16T13:48:16.412Z,5.78
2023-03-16T13:50:44.888Z,5.79
2023-03-16T13:53:19.203Z,5.77
2023-03-16T13:55:48.244Z,5.78
2023-03-16T13:58:26.111Z,5.78
2023-03-16T14:01:01.930Z,5.77
2023-03-16T14:03:37.507Z,5.77
2023-03-16T14:06:06.745Z,5.76
2023-03-16T14:08:34.821Z,5.76
2023-03-16T14:11:03.878Z,5.76
2023-03-16T14:13:34.312Z,5.76
2023-03-16T14:16:03.860Z,5.76
2023-03-16T14:18:36.690Z,5.78
2023-03-16T14:21:06.931Z,5.79
2023-03-16T14:23:40.952Z,5.78
2023-03-16T14:26:16.695Z,5.77
2023-03-16T14:29:17.222Z,5.76
2023-03-16T14:31:45.894Z,5.78
2023-03-16T14:34:26.165Z,5.78
2023-03-16T14:36:54.332Z,5.79
2023-03-16T14:39:27.119Z,5.79
2023-03-16T14:41:55.095Z,5.79
2023-03-16T14:44:24.962Z,5.79
2023-03-16T14:46:54.305Z,5.80
2023-03-16T14:49:26.084Z,5.81
2023-03-16T14:51:55.481Z,5.82
2023-03-16T14:54:24.275Z,5.83
2023-03-16T14:56:54.403Z,5.83
2023-03-16T14:59:22.477Z,5.86
2023-03-16T15:01:51.894Z,5.87
2023-03-16T15:04:26.301Z,5.88
2023-03-16T15:06:54.805Z,5.88
2023-03-16T15:09:46.196Z,5.90
2023-03-16T15:12:15.395Z,5.92
2023-03-16T15:15:02.721Z,5.92
2023-03-16T15:17:30.688Z,5.93
2023-03-16T15:19:58.979Z,5.94
2023-03-16T15:22:36.044Z,5.96
2023-03-16T15:25:24.367Z,5.98
2023-03-16T15:27:52.880Z,6.00
2023-03-16T15:30:23.099Z,6.03
2023-03-16T15:32:51.468Z,6.05
2023-03-16T15:35:20.785Z,6.07
2023-03-16T15:37:48.866Z,6.09
2023-03-16T15:40:18.641Z,6.10
2023-03-16T15:42:47.082Z,6.10
2023-03-16T15:45:17.707Z,6.11
2023-03-16T15:47:45.782Z,6.10
2023-03-16T15:50:15.705Z,6.08
2023-03-16T15:52:46.840Z,6.07
2023-03-16T15:55:17.495Z,6.06
2023-03-16T15:57:45.750Z,6.05
2023-03-16T16:00:37.623Z,6.03
2023-03-16T16:03:06.670Z,6.02
2023-03-16T16:05:34.846Z,6.02
2023-03-16T16:08:03.084Z,6.01
2023-03-16T16:10:32.295Z,5.99
2023-03-16T16:13:01.523Z,5.96
2023-03-16T16:15:32.529Z,5.95
2023-03-16T16:18:20.375Z,5.95
2023-03-16T16:20:50.009Z,5.95
2023-03-16T16:23:18.308Z,5.96
2023-03-16T16:25:46.858Z,5.97
2023-03-16T16:28:16.694Z,5.98
2023-03-16T16:30:44.681Z,5.98
2023-03-16T16:33:25.124Z,5.98
2023-03-16T16:35:54.297Z,5.99
2023-03-16T16:38:22.692Z,5.98
2023-03-16T16:40:51.724Z,5.98
2023-03-16T16:43:39.037Z,5.95
2023-03-16T16:46:13.171Z,5.95
2023-03-16T16:49:02.004Z,5.94
2023-03-16T16:51:30.071Z,5.93
2023-03-16T16:53:58.962Z,5.92
2023-03-16T16:56:28.063Z,5.91
2023-03-16T16:58:56.830Z,5.91
2023-03-16T17:01:27.048Z,5.89
2023-03-16T17:03:55.871Z,5.88
2023-03-16T17:06:23.834Z,5.89
2023-03-16T17:08:52.856Z,5.89
2023-03-16T17:11:29.205Z,5.89
2023-03-16T17:14:01.893Z,5.89
2023-03-16T17:16:32.262Z,5.90
2023-03-16T17:19:00.235Z,5.90
2023-03-16T17:21:31.141Z,5.89
2023-03-16T17:24:00.652Z,5.88
2023-03-16T17:26:30.464Z,5.87
2023-03-16T17:29:03.042Z,5.87
2023-03-16T17:31:36.750Z,5.85
2023-03-16T17:34:16.649Z,5.83
2023-03-16T17:36:45.677Z,5.81
2023-03-16T17:39:21.646Z,5.80
2023-03-16T17:41:52.384Z,5.81
2023-03-16T17:44:21.520Z,5.81
2023-03-16T17:46:49.906Z,5.82
2023-03-16T17:49:18.514Z,5.81
2023-03-16T17:51:47.355Z,5.82
2023-03-16T17:54:15.744Z,5.83
2023-03-16T17:56:43.998Z,5.85
2023-03-16T17:59:22.165Z,5.87
2023-03-16T18:01:50.412Z,5.90
2023-03-16T18:04:21.252Z,5.93
2023-03-16T18:06:49.639Z,5.97
2023-03-16T18:09:18.943Z,6.00
2023-03-16T18:11:48.361Z,6.04
2023-03-16T18:14:23.884Z,6.07
2023-03-16T18:16:52.470Z,6.10
2023-03-16T18:19:23.841Z,6.13
2023-03-16T18:21:53.682Z,6.15
2023-03-16T18:24:25.798Z,6.18
2023-03-16T18:26:54.079Z,6.20
2023-03-16T18:29:22.581Z,6.22
2023-03-16T18:31:51.978Z,6.24
2023-03-16T18:34:23.889Z,6.27
2023-03-16T18:36:53.273Z,6.28
2023-03-16T18:39:22.147Z,6.30
2023-03-16T18:41:51.066Z,6.32
2023-03-16T18:44:23.539Z,6.33
2023-03-16T18:46:54.019Z,6.35
2023-03-16T18:49:43.821Z,6.36
2023-03-16T18:52:32.900Z,6.38
2023-03-16T18:55:00.961Z,6.40
2023-03-16T18:57:29.254Z,6.41
2023-03-16T18:59:57.428Z,6.42
2023-03-16T19:02:39.144Z,6.43
2023-03-16T19:05:17.299Z,6.45
2023-03-16T19:07:47.178Z,6.46
2023-03-16T19:10:33.317Z,6.46
2023-03-16T19:13:01.699Z,6.46
2023-03-16T19:15:31.842Z,6.46
2023-03-16T19:18:00.340Z,6.46
2023-03-16T19:20:30.649Z,6.47
2023-03-16T19:23:05.765Z,6.47
2023-03-16T19:25:37.745Z,6.48
2023-03-16T19:28:07.764Z,6.48
2023-03-16T19:30:38.704Z,6.47
2023-03-16T19:33:22.223Z,6.45
2023-03-16T19:35:52.126Z,6.44
2023-03-16T19:38:22.370Z,6.44
2023-03-16T19:40:53.522Z,6.43
2023-03-16T19:43:21.907Z,6.42
2023-03-16T19:45:50.115Z,6.42
2023-03-16T19:48:31.352Z,6.43
2023-03-16T19:50:59.245Z,6.43
2023-03-16T19:53:27.706Z,6.44
2023-03-16T19:55:55.710Z,6.45
2023-03-16T19:58:30.316Z,6.46
2023-03-16T20:00:59.217Z,6.46
2023-03-16T20:03:27.907Z,6.45
2023-03-16T20:05:55.870Z,6.43
2023-03-16T20:08:25.792Z,6.40
2023-03-16T20:11:00.983Z,6.39
2023-03-16T20:13:31.476Z,6.38
2023-03-16T20:15:59.540Z,6.37
2023-03-16T20:18:29.459Z,6.36
2023-03-16T20:20:57.732Z,6.35
2023-03-16T20:23:27.387Z,6.34
2023-03-16T20:25:57.181Z,6.32
2023-03-16T20:28:27.844Z,6.31
2023-03-16T20:30:56.133Z,6.28
2023-03-16T20:33:25.396Z,6.27
2023-03-16T20:35:59.411Z,6.25
2023-03-16T20:38:27.474Z,6.23
2023-03-16T20:40:56.171Z,6.22
2023-03-16T20:43:26.690Z,6.21
2023-03-16T20:45:56.133Z,6.20
2023-03-16T20:48:27.680Z,6.19
2023-03-16T20:50:57.278Z,6.18
2023-03-16T20:53:25.366Z,6.17
2023-03-16T20:55:54.846Z,6.15
2023-03-16T20:58:28.075Z,6.15
2023-03-16T21:00:57.876Z,6.15
2023-03-16T21:03:28.438Z,6.15
2023-03-16T21:05:59.594Z,6.16
2023-03-16T21:08:28.026Z,6.17
2023-03-16T21:10:59.994Z,6.19
2023-03-16T21:13:32.475Z,6.21
2023-03-16T21:16:02.465Z,6.22
2023-03-16T21:18:30.913Z,6.23
2023-03-16T21:20:59.011Z,6.24
2023-03-16T21:23:27.271Z,6.26
2023-03-16T21:26:00.834Z,6.27
2023-03-16T21:28:29.733Z,6.29
2023-03-16T21:30:58.284Z,6.29
2023-03-16T21:33:30.188Z,6.31
2023-03-16T21:35:59.440Z,6.32
2023-03-16T21:38:28.888Z,6.33
2023-03-16T21:40:57.313Z,6.34
2023-03-16T21:43:26.986Z,6.35
2023-03-16T21:45:56.917Z,6.35
2023-03-16T21:48:28.111Z,6.36
2023-03-16T21:50:57.159Z,6.36
2023-03-16T21:53:27.305Z,6.35
2023-03-16T21:55:55.825Z,6.36
2023-03-16T21:58:23.884Z,6.36
2023-03-16T22:00:53.653Z,6.36
2023-03-16T22:03:37.800Z,6.37
2023-03-16T22:06:16.199Z,6.37
2023-03-16T22:08:44.194Z,6.36
2023-03-16T22:11:19.435Z,6.37
2023-03-16T22:13:47.405Z,6.38
2023-03-16T22:16:17.442Z,6.38
2023-03-16T22:18:47.349Z,6.38
2023-03-16T22:21:18.000Z,6.38
2023-03-16T22:23:46.244Z,6.38
2023-03-16T22:26:16.787Z,6.38
2023-03-16T22:28:46.804Z,6.38
2023-03-16T22:31:17.142Z,6.38
2023-03-16T22:33:47.791Z,6.39
2023-03-16T22:36:17.812Z,6.39
2023-03-16T22:38:46.440Z,6.39
2023-03-16T22:41:15.891Z,6.40
2023-03-16T22:43:44.784Z,6.39
2023-03-16T22:46:23.731Z,6.39
2023-03-16T22:48:52.912Z,6.39
2023-03-16T22:51:26.826Z,6.39
2023-03-16T22:53:57.554Z,6.40
2023-03-16T22:56:26.442Z,6.40
2023-03-16T22:58:57.357Z,6.40
2023-03-16T23:01:39.686Z,6.40
2023-03-16T23:04:17.409Z,6.39
2023-03-16T23:06:47.310Z,6.38
2023-03-16T23:09:16.320Z,6.39
2023-03-16T23:11:46.026Z,6.38
2023-03-16T23:14:16.032Z,6.37
2023-03-16T23:16:44.696Z,6.36
2023-03-16T23:19:34.127Z,6.35
2023-03-16T23:22:05.016Z,6.34
2023-03-16T23:24:34.042Z,6.33
2023-03-16T23:27:02.415Z,6.32
2023-03-16T23:29:31.212Z,6.31
2023-03-16T23:31:59.386Z,6.29
2023-03-16T23:34:27.355Z,6.27
2023-03-16T23:36:55.437Z,6.24
2023-03-16T23:39:23.430Z,6.23
2023-03-16T23:41:52.403Z,6.21
2023-03-16T23:44:25.086Z,6.20
2023-03-16T23:46:53.158Z,6.19
2023-03-16T23:49:26.152Z,6.17
2023-03-16T23:51:56.280Z,6.14
2023-03-16T23:54:25.782Z,6.10
2023-03-16T23:56:53.975Z,6.08
2023-03-16T23:59:23.683Z,6.07
